Pagina principale
METAR-TAF:

METAR-TAF

Aeroporti :

Fiume, Croazia

latitudine: 45-13N, longitudine: 014-35E, altezza: 85 m

Osservazione

Il bollettino è stato emesso 24 minuti fa, alle 08:30 UTC
Vento 15 kt da nord-est
Temperature 9°C
Umidità 40%
Pressione 1025 hPa
Visibilità 10 km o più
Poco nuvoloso ad un'altezza di 3300 ft

METAR: LDRI 170830Z 04015KT 9999 FEW033 09/M04 Q1025

Ora: 09:54 (08:54 UTC)

Previsione

Il bollettino è stato emesso 3 ore e 29 minuti fa, alle 05:25 UTC
Previsione valida dal 17 alle 06 UTC al 18 alle 06 UTC
Vento 10 kt da est/nord-est
Visibilità 10 km o più
nessuna nube inferiore a 1500 m e nessun cumulonembo
Temporaneamente
dal 17 alle 06 UTC al 18 alle 06 UTC
Vento 15 kt da est/nord-est con raffiche fino a 30 kt
Probabilità 30% :
Temporaneamente
dal 17 alle 06 UTC al 18 alle 06 UTC
Vento 8 kt da direzioni variabili

TAF: LDRI 170525Z 1706/1806 06010KT CAVOK TX12/1712Z TN06/1805Z TEMPO 1706/1806 06015G30KT PROB30 TEMPO 1706/1806 VRB08KT

Osservazioni e previsioni meteorologiche di più di 4000 aeroporti (messaggi METAR e TAF).

Le stazioni disponibili sono rappresentate dai dischi gialli e rossi sulla carta.

Puntare il mouse per vedere il nome della stazione.

Clicca sopra per visualizzare le osservazioni e previsioni meteorologiche.

Per cambiare la mappa : fare clic sui pulsanti verdi con una croce nera per ingrandire, il pulsante verde con un trattino per diminuire, o sulla freccia verde per le mappe adiacenti.


METAR-TAF: